createdAt,value
2023-05-22T00:00:02.303Z,100779.50
2023-05-22T00:02:43.409Z,100779.19
2023-05-22T00:05:13.129Z,100777.34
2023-05-22T00:07:43.647Z,100775.84
2023-05-22T00:10:12.494Z,100768.94
2023-05-22T00:12:42.275Z,100774.34
2023-05-22T00:15:12.792Z,100767.25
2023-05-22T00:17:42.329Z,100768.94
2023-05-22T00:20:11.587Z,100776.19
2023-05-22T00:22:40.003Z,100761.88
2023-05-22T00:25:09.691Z,100767.28
2023-05-22T00:27:39.149Z,100777.03
2023-05-22T00:30:10.311Z,100772.66
2023-05-22T00:32:38.896Z,100768.44
2023-05-22T00:35:08.485Z,100767.63
2023-05-22T00:37:36.855Z,100766.09
2023-05-22T00:40:06.249Z,100758.53
2023-05-22T00:42:34.740Z,100764.59
2023-05-22T00:45:03.198Z,100763.06
2023-05-22T00:47:33.049Z,100771.97
2023-05-22T00:50:01.951Z,100765.94
2023-05-22T00:52:31.523Z,100762.91
2023-05-22T00:55:00.870Z,100769.97
2023-05-22T00:57:29.542Z,100770.81
2023-05-22T00:59:58.899Z,100769.31
2023-05-22T01:02:33.039Z,100769.63
2023-05-22T01:05:04.413Z,100771.63
2023-05-22T01:07:33.401Z,100762.56
2023-05-22T01:10:01.782Z,100765.25
2023-05-22T01:12:39.890Z,100762.06
2023-05-22T01:15:17.627Z,100691.25
2023-05-22T01:17:57.747Z,100765.25
2023-05-22T01:20:33.470Z,100765.25
2023-05-22T01:23:34.358Z,100767.97
2023-05-22T01:26:20.761Z,100759.88
2023-05-22T01:29:14.204Z,100757.19
2023-05-22T01:31:47.258Z,100759.72
2023-05-22T01:34:17.718Z,100767.25
2023-05-22T01:36:48.061Z,100752.47
2023-05-22T01:39:17.536Z,100753.13
2023-05-22T01:41:47.483Z,100750.41
2023-05-22T01:44:16.599Z,100746.22
2023-05-22T01:46:46.830Z,100754.47
2023-05-22T01:49:15.604Z,100737.66
2023-05-22T01:51:53.446Z,100750.75
2023-05-22T01:54:28.320Z,100755.47
2023-05-22T01:57:00.669Z,100758.84
2023-05-22T01:59:35.889Z,100757.66
2023-05-22T02:02:09.231Z,100750.41
2023-05-22T02:04:40.619Z,100734.28
2023-05-22T02:07:12.326Z,100749.19
2023-05-22T02:09:43.520Z,100742.97
2023-05-22T02:12:14.342Z,100739.44
2023-05-22T02:14:43.940Z,100712.09
2023-05-22T02:17:13.991Z,100732.41
2023-05-22T02:19:44.070Z,100741.69
2023-05-22T02:22:13.954Z,100742.03
2023-05-22T02:24:44.698Z,100746.06
2023-05-22T02:27:13.214Z,100761.03
2023-05-22T02:29:41.922Z,100754.47
2023-05-22T02:32:11.259Z,100755.66
2023-05-22T02:34:41.138Z,100743.06
2023-05-22T02:37:09.584Z,100754.47
2023-05-22T02:39:37.940Z,100747.41
2023-05-22T02:42:07.734Z,100748.75
2023-05-22T02:44:36.365Z,100754.84
2023-05-22T02:47:06.333Z,100753.66
2023-05-22T02:49:34.844Z,100756.72
2023-05-22T02:52:04.810Z,100755.69
2023-05-22T02:54:33.172Z,100748.81
2023-05-22T02:57:02.984Z,100746.94
2023-05-22T02:59:31.761Z,100738.59
2023-05-22T03:02:00.431Z,100743.13
2023-05-22T03:04:29.716Z,100743.31
2023-05-22T03:06:58.155Z,100735.75
2023-05-22T03:09:28.432Z,100749.22
2023-05-22T03:11:56.882Z,100746.00
2023-05-22T03:14:25.310Z,100748.22
2023-05-22T03:16:54.877Z,100744.50
2023-05-22T03:19:24.912Z,100742.66
2023-05-22T03:21:53.947Z,100743.84
2023-05-22T03:24:23.628Z,100743.38
2023-05-22T03:26:53.527Z,100736.28
2023-05-22T03:29:30.752Z,100753.94
2023-05-22T03:32:00.086Z,100753.25
2023-05-22T03:34:30.106Z,100755.28
2023-05-22T03:36:58.678Z,100748.22
2023-05-22T03:39:27.135Z,100752.75
2023-05-22T03:42:08.321Z,100748.06
2023-05-22T03:44:36.939Z,100744.84
2023-05-22T03:47:05.832Z,100744.19
2023-05-22T03:49:34.264Z,100740.84
2023-05-22T03:52:04.179Z,100755.66
2023-05-22T03:54:32.669Z,100744.72
2023-05-22T03:57:01.227Z,100752.44
2023-05-22T03:59:32.091Z,100753.94
2023-05-22T04:02:03.766Z,100752.25
2023-05-22T04:04:32.493Z,100752.63
2023-05-22T04:07:02.830Z,100763.38
2023-05-22T04:09:34.507Z,100758.84
2023-05-22T04:12:03.714Z,100762.38
2023-05-22T04:14:33.935Z,100757.63
2023-05-22T04:17:02.430Z,100753.47
2023-05-22T04:19:30.947Z,100754.09
2023-05-22T04:21:59.767Z,100762.00
2023-05-22T04:24:28.070Z,100764.34
2023-05-22T04:27:00.168Z,100757.97
2023-05-22T04:29:29.261Z,100760.50
2023-05-22T04:32:00.317Z,100757.47
2023-05-22T04:34:30.352Z,100755.94
2023-05-22T04:37:00.208Z,100756.97
2023-05-22T04:39:28.674Z,100769.41
2023-05-22T04:42:05.849Z,100773.44
2023-05-22T04:44:35.511Z,100775.13
2023-05-22T04:47:08.190Z,100770.06
2023-05-22T04:49:36.910Z,100773.78
2023-05-22T04:52:07.390Z,100768.06
2023-05-22T04:54:36.319Z,100772.44
2023-05-22T04:57:05.278Z,100776.78
2023-05-22T04:59:38.117Z,100771.94
2023-05-22T05:02:08.562Z,100778.31
2023-05-22T05:04:37.628Z,100780.66
2023-05-22T05:07:07.304Z,100781.31
2023-05-22T05:09:35.868Z,100780.81
2023-05-22T05:12:04.795Z,100770.38
2023-05-22T05:14:33.185Z,100777.56
2023-05-22T05:17:02.593Z,100777.72
2023-05-22T05:19:34.163Z,100786.97
2023-05-22T05:22:04.706Z,100787.47
2023-05-22T05:24:33.723Z,100792.16
2023-05-22T05:27:02.234Z,100798.50
2023-05-22T05:29:31.346Z,100795.78
2023-05-22T05:32:06.778Z,100795.09
2023-05-22T05:34:48.213Z,100794.25
2023-05-22T05:37:35.137Z,100795.44
2023-05-22T05:40:07.725Z,100781.97
2023-05-22T05:42:37.969Z,100794.66
2023-05-22T05:45:08.113Z,100791.09
2023-05-22T05:47:36.590Z,100796.31
2023-05-22T05:50:07.433Z,100792.34
2023-05-22T05:52:37.164Z,100799.03
2023-05-22T05:55:12.539Z,100804.81
2023-05-22T05:57:41.900Z,100805.84
2023-05-22T06:00:15.570Z,100810.22
2023-05-22T06:02:44.067Z,100804.66
2023-05-22T06:05:47.612Z,100810.22
2023-05-22T06:08:43.537Z,100806.41
2023-05-22T06:11:12.314Z,100814.09
2023-05-22T06:13:51.773Z,100813.28
2023-05-22T06:16:20.526Z,100817.66
2023-05-22T06:18:49.745Z,100817.66
2023-05-22T06:21:21.210Z,100814.78
2023-05-22T06:23:51.026Z,100819.31
2023-05-22T06:26:20.271Z,100815.63
2023-05-22T06:28:51.904Z,100820.28
2023-05-22T06:31:24.642Z,100829.19
2023-05-22T06:33:56.284Z,100825.56
2023-05-22T06:36:27.552Z,100821.44
2023-05-22T06:38:57.044Z,100824.38
2023-05-22T06:41:43.935Z,100830.16
2023-05-22T06:44:14.788Z,100823.81
2023-05-22T06:46:43.201Z,100825.47
2023-05-22T06:49:18.752Z,100826.59
2023-05-22T06:51:52.253Z,100828.09
2023-05-22T06:54:21.594Z,100834.88
2023-05-22T06:56:53.882Z,100826.50
2023-05-22T06:59:22.823Z,100830.97
2023-05-22T07:02:06.887Z,100837.50
2023-05-22T07:04:56.325Z,100832.38
2023-05-22T07:07:33.817Z,100833.72
2023-05-22T07:10:02.524Z,100836.94
2023-05-22T07:12:33.825Z,100836.31
2023-05-22T07:15:03.522Z,100841.28
2023-05-22T07:17:33.178Z,100843.88
2023-05-22T07:20:01.879Z,100842.13
2023-05-22T07:22:31.268Z,100842.97
2023-05-22T07:25:01.262Z,100841.81
2023-05-22T07:27:33.511Z,100847.94
2023-05-22T07:30:03.397Z,100841.06
2023-05-22T07:32:33.506Z,100841.31
2023-05-22T07:35:04.991Z,100849.69
2023-05-22T07:37:36.102Z,100844.22
2023-05-22T07:40:07.726Z,100852.81
2023-05-22T07:42:36.557Z,100848.84
2023-05-22T07:45:06.638Z,100855.75
2023-05-22T07:47:35.278Z,100871.41
2023-05-22T07:50:04.592Z,100864.09
2023-05-22T07:52:36.033Z,100866.38
2023-05-22T07:55:08.737Z,100873.69
2023-05-22T07:57:40.120Z,100880.59
2023-05-22T08:00:18.716Z,100876.84
2023-05-22T08:02:47.500Z,100881.66
2023-05-22T08:05:16.192Z,100886.88
2023-05-22T08:07:44.853Z,100884.34
2023-05-22T08:10:18.246Z,100877.47
2023-05-22T08:12:47.058Z,100878.69
2023-05-22T08:15:15.660Z,100872.25
2023-05-22T08:17:44.292Z,100863.66
2023-05-22T08:20:13.786Z,100854.88
2023-05-22T08:22:42.634Z,100862.44
2023-05-22T08:25:11.384Z,100859.91
2023-05-22T08:27:41.337Z,100857.81
2023-05-22T08:30:10.356Z,100855.13
2023-05-22T08:32:39.580Z,100852.56
2023-05-22T08:35:08.746Z,100852.59
2023-05-22T08:37:37.328Z,100854.50
2023-05-22T08:40:07.150Z,100845.66
2023-05-22T08:42:35.677Z,100847.53
2023-05-22T08:45:07.224Z,100850.66
2023-05-22T08:47:37.315Z,100830.81
2023-05-22T08:50:07.430Z,100857.16
2023-05-22T08:52:44.281Z,100850.66
2023-05-22T08:55:13.311Z,100857.97
2023-05-22T08:57:42.237Z,100859.88
2023-05-22T09:00:13.629Z,100852.75
2023-05-22T09:02:43.049Z,100856.28
2023-05-22T09:05:11.776Z,100863.78
2023-05-22T09:07:41.052Z,100856.19
2023-05-22T09:10:09.905Z,100853.66
2023-05-22T09:12:38.931Z,100852.56
2023-05-22T09:15:13.779Z,100861.28
2023-05-22T09:17:42.638Z,100844.88
2023-05-22T09:20:15.899Z,100856.06
2023-05-22T09:22:44.572Z,100849.00
2023-05-22T09:25:19.733Z,100849.53
2023-05-22T09:27:48.420Z,100833.34
2023-05-22T09:30:19.552Z,100849.69
2023-05-22T09:32:50.186Z,100846.56
2023-05-22T09:35:20.347Z,100839.75
2023-05-22T09:37:51.922Z,100848.66
2023-05-22T09:40:20.314Z,100841.19
2023-05-22T09:42:48.718Z,100844.19
2023-05-22T09:45:22.917Z,100848.28
2023-05-22T09:47:51.879Z,100841.31
2023-05-22T09:50:20.775Z,100835.25
2023-05-22T09:52:52.240Z,100833.22
2023-05-22T09:55:22.971Z,100829.88
2023-05-22T09:57:53.741Z,100818.19
2023-05-22T10:00:25.478Z,100830.50
2023-05-22T10:03:03.730Z,100825.31
2023-05-22T10:05:34.145Z,100814.72
2023-05-22T10:08:10.387Z,100828.38
2023-05-22T10:10:40.408Z,100821.38
2023-05-22T10:13:09.352Z,100823.06
2023-05-22T10:15:39.800Z,100818.63
2023-05-22T10:18:08.563Z,100817.91
2023-05-22T10:20:38.344Z,100817.34
2023-05-22T10:23:08.339Z,100803.81
2023-05-22T10:25:37.264Z,100809.06
2023-05-22T10:28:06.704Z,100810.34
2023-05-22T10:30:43.956Z,100805.72
2023-05-22T10:33:46.224Z,100803.94
2023-05-22T10:36:21.576Z,100772.06
2023-05-22T10:39:15.571Z,100795.94
2023-05-22T10:41:47.812Z,100790.50
2023-05-22T10:44:16.596Z,100785.38
2023-05-22T10:46:51.369Z,100741.44
2023-05-22T10:49:23.992Z,100777.13
2023-05-22T10:51:57.738Z,100779.16
2023-05-22T10:54:41.566Z,100777.72
2023-05-22T10:57:16.169Z,100773.75
2023-05-22T10:59:44.759Z,100776.34
2023-05-22T11:02:29.546Z,100762.03
2023-05-22T11:05:36.667Z,100754.16
2023-05-22T11:08:36.026Z,100757.06
2023-05-22T11:11:14.627Z,100753.44
2023-05-22T11:13:43.844Z,100756.84
2023-05-22T11:16:22.738Z,100741.56
2023-05-22T11:19:21.165Z,100728.03
2023-05-22T11:21:51.347Z,100749.34
2023-05-22T11:24:20.229Z,100722.13
2023-05-22T11:27:03.707Z,100734.16
2023-05-22T11:29:32.409Z,100735.41
2023-05-22T11:32:01.183Z,100733.84
2023-05-22T11:34:31.164Z,100722.19
2023-05-22T11:37:00.707Z,100720.69
2023-05-22T11:39:29.349Z,100720.69
2023-05-22T11:41:58.013Z,100718.00
2023-05-22T11:44:29.562Z,100722.56
2023-05-22T11:46:58.066Z,100717.16
2023-05-22T11:49:26.836Z,100703.56
2023-05-22T11:51:56.638Z,100708.09
2023-05-22T11:54:25.089Z,100704.91
2023-05-22T11:56:54.030Z,100695.09
2023-05-22T11:59:25.031Z,100691.31
2023-05-22T12:01:53.837Z,100683.41
2023-05-22T12:04:25.723Z,100678.81
2023-05-22T12:06:55.074Z,100681.56
2023-05-22T12:09:25.603Z,100673.41
2023-05-22T12:11:56.647Z,100670.50
2023-05-22T12:14:28.331Z,100661.50
2023-05-22T12:16:57.074Z,100658.22
2023-05-22T12:19:27.149Z,100662.72
2023-05-22T12:21:55.973Z,100661.13
2023-05-22T12:24:26.141Z,100658.97
2023-05-22T12:26:54.948Z,100659.94
2023-05-22T12:29:25.028Z,100649.50
2023-05-22T12:31:53.554Z,100653.13
2023-05-22T12:34:24.521Z,100647.63
2023-05-22T12:36:53.051Z,100643.19
2023-05-22T12:39:22.488Z,100636.03
2023-05-22T12:41:52.537Z,100638.81
2023-05-22T12:44:28.456Z,100632.81
2023-05-22T12:46:56.904Z,100630.09
2023-05-22T12:49:26.455Z,100632.34
2023-05-22T12:51:54.984Z,100631.00
2023-05-22T12:54:26.574Z,100626.03
2023-05-22T12:56:58.785Z,100625.22
2023-05-22T12:59:28.478Z,100620.28
2023-05-22T13:02:02.210Z,100623.59
2023-05-22T13:04:46.576Z,100621.13
2023-05-22T13:07:21.421Z,100619.53
2023-05-22T13:09:50.939Z,100619.31
2023-05-22T13:12:20.873Z,100607.78
2023-05-22T13:14:49.943Z,100607.72
2023-05-22T13:17:19.991Z,100614.22
2023-05-22T13:19:48.333Z,100604.41
2023-05-22T13:22:16.930Z,100609.34
2023-05-22T13:24:46.333Z,100572.03
2023-05-22T13:27:14.865Z,100614.03
2023-05-22T13:29:45.247Z,100613.47
2023-05-22T13:32:14.492Z,100613.47
2023-05-22T13:34:43.598Z,100611.81
2023-05-22T13:37:13.427Z,100598.03
2023-05-22T13:39:42.037Z,100605.59
2023-05-22T13:42:12.504Z,100606.44
2023-05-22T13:44:40.877Z,100605.97
2023-05-22T13:47:10.902Z,100608.72
2023-05-22T13:49:40.496Z,100602.72
2023-05-22T13:52:09.008Z,100593.38
2023-05-22T13:54:37.530Z,100592.63
2023-05-22T13:57:06.190Z,100592.66
2023-05-22T13:59:34.919Z,100585.25
2023-05-22T14:02:03.592Z,100586.63
2023-05-22T14:04:33.469Z,100586.38
2023-05-22T14:07:02.342Z,100580.34
2023-05-22T14:09:31.479Z,100578.19
2023-05-22T14:12:00.001Z,100576.53
2023-05-22T14:14:31.470Z,100577.91
2023-05-22T14:17:00.279Z,100569.34
2023-05-22T14:19:28.944Z,100558.63
2023-05-22T14:21:58.750Z,100551.22
2023-05-22T14:24:27.426Z,100556.19
2023-05-22T14:26:58.233Z,100569.91
2023-05-22T14:29:27.994Z,100579.28
2023-05-22T14:32:03.145Z,100562.22
2023-05-22T14:34:32.228Z,100568.28
2023-05-22T14:37:02.086Z,100559.97
2023-05-22T14:39:31.798Z,100567.59
2023-05-22T14:42:01.211Z,100580.41
2023-05-22T14:44:29.947Z,100584.88
2023-05-22T14:46:58.314Z,100587.66
2023-05-22T14:49:30.121Z,100596.75
2023-05-22T14:51:58.540Z,100588.53
2023-05-22T14:54:29.021Z,100587.44
2023-05-22T14:56:57.566Z,100598.63
2023-05-22T14:59:26.769Z,100620.13
2023-05-22T15:01:55.426Z,100640.03
2023-05-22T15:04:25.513Z,100663.31
2023-05-22T15:06:54.409Z,100691.38
2023-05-22T15:09:23.081Z,100717.19
2023-05-22T15:11:53.142Z,100726.19
2023-05-22T15:14:22.028Z,100741.34
2023-05-22T15:16:50.567Z,100755.16
2023-05-22T15:19:19.490Z,100758.31
2023-05-22T15:21:48.089Z,100757.84
2023-05-22T15:24:17.151Z,100756.38
2023-05-22T15:26:45.792Z,100766.78
2023-05-22T15:29:15.859Z,100764.13
2023-05-22T15:31:44.513Z,100763.22
2023-05-22T15:34:13.289Z,100762.19
2023-05-22T15:36:41.738Z,100770.78
2023-05-22T15:39:10.176Z,100775.44
2023-05-22T15:44:20.403Z,100763.94
2023-05-22T15:46:49.293Z,100675.41
2023-05-22T15:54:00.437Z,100742.22
2023-05-22T15:56:29.212Z,100725.47
2023-05-22T15:58:58.083Z,100721.28
2023-05-22T16:01:30.006Z,100716.25
2023-05-22T16:04:01.412Z,100729.66
2023-05-22T16:06:30.202Z,100655.19
2023-05-22T16:08:58.837Z,100755.19
2023-05-22T16:11:27.548Z,100761.47
2023-05-22T16:13:57.213Z,100764.63
2023-05-22T16:16:25.876Z,100759.19
2023-05-22T16:18:56.103Z,100731.84
2023-05-22T16:21:24.824Z,100771.94
2023-05-22T16:23:55.628Z,100781.97
2023-05-22T16:26:24.654Z,100771.13
2023-05-22T16:28:53.370Z,100642.28
2023-05-22T16:31:22.047Z,100775.31
2023-05-22T16:33:50.726Z,100717.66
2023-05-22T16:36:21.169Z,100782.63
2023-05-22T16:38:49.826Z,100751.22
2023-05-22T16:41:18.445Z,100783.38
2023-05-22T16:43:47.135Z,100779.03
2023-05-22T16:46:15.865Z,100788.63
2023-05-22T16:48:44.504Z,100727.56
2023-05-22T16:51:14.264Z,100795.47
2023-05-22T16:53:44.377Z,100792.31
2023-05-22T16:56:12.901Z,100787.31
2023-05-22T16:58:41.589Z,100781.59
2023-05-22T17:01:10.449Z,100782.41
2023-05-22T17:03:39.701Z,100782.19
2023-05-22T17:06:09.081Z,100784.06
2023-05-22T17:08:37.767Z,100783.41
2023-05-22T17:11:08.829Z,100785.94
2023-05-22T17:13:37.347Z,100793.41
2023-05-22T17:16:07.477Z,100788.44
2023-05-22T17:18:36.867Z,100741.50
2023-05-22T17:21:09.377Z,100799.56
2023-05-22T17:23:38.974Z,100803.94
2023-05-22T17:26:09.161Z,100795.81
2023-05-22T17:28:37.941Z,100794.13
2023-05-22T17:31:06.518Z,100772.66
2023-05-22T17:33:35.444Z,100717.22
2023-05-22T17:36:04.145Z,100779.94
2023-05-22T17:38:32.828Z,100780.53
2023-05-22T17:41:01.521Z,100769.91
2023-05-22T17:48:09.299Z,100657.75
2023-05-22T17:50:38.078Z,100782.34
2023-05-22T17:53:06.719Z,100698.66
2023-05-22T17:55:35.357Z,100800.50
2023-05-22T17:58:04.219Z,100798.63
2023-05-22T18:00:32.859Z,100801.72
2023-05-22T18:03:01.534Z,100804.34
2023-05-22T18:05:31.734Z,100794.66
2023-05-22T18:08:00.818Z,100795.91
2023-05-22T18:10:29.535Z,100798.41
2023-05-22T18:12:58.143Z,100804.66
2023-05-22T18:15:26.689Z,100802.41
2023-05-22T18:17:55.318Z,100802.00
2023-05-22T18:20:23.934Z,100804.72
2023-05-22T18:27:36.469Z,100804.81
2023-05-22T18:30:06.406Z,100799.63
2023-05-22T18:32:34.995Z,100801.03
2023-05-22T18:35:05.016Z,100621.47
2023-05-22T18:37:33.819Z,100723.75
2023-05-22T18:40:06.484Z,100777.22
2023-05-22T18:42:36.768Z,100804.34
2023-05-22T18:45:06.130Z,100811.63
2023-05-22T18:47:34.840Z,100810.59
2023-05-22T18:50:04.234Z,100810.59
2023-05-22T18:52:32.749Z,100814.06
2023-05-22T18:55:01.761Z,100814.25
2023-05-22T18:57:30.343Z,100818.66
2023-05-22T19:00:00.417Z,100810.91
2023-05-22T19:02:29.094Z,100727.06
2023-05-22T19:04:57.852Z,100807.81
2023-05-22T19:07:26.503Z,100815.84
2023-05-22T19:09:55.066Z,100818.75
2023-05-22T19:12:24.743Z,100814.09
2023-05-22T19:14:53.751Z,100829.66
2023-05-22T19:17:23.699Z,100830.31
2023-05-22T19:19:52.270Z,100836.09
2023-05-22T19:22:20.897Z,100843.72
2023-05-22T19:24:49.457Z,100838.13
2023-05-22T19:27:18.967Z,100729.66
2023-05-22T19:29:47.581Z,100838.06
2023-05-22T19:32:16.235Z,100668.41
2023-05-22T19:34:46.584Z,100840.94
2023-05-22T19:37:15.251Z,100842.28
2023-05-22T19:39:43.827Z,100845.91
2023-05-22T19:42:12.498Z,100863.59
2023-05-22T19:44:41.677Z,100863.03
2023-05-22T19:47:10.254Z,100863.47
2023-05-22T19:49:39.195Z,100869.59
2023-05-22T19:52:09.202Z,100873.69
2023-05-22T19:54:37.766Z,100884.59
2023-05-22T19:57:06.581Z,100888.78
2023-05-22T19:59:36.873Z,100897.44
2023-05-22T20:02:05.927Z,100860.63
2023-05-22T20:04:34.580Z,100907.00
2023-05-22T20:07:04.373Z,100915.16
2023-05-22T20:09:34.639Z,100913.66
2023-05-22T20:12:03.147Z,100910.09
2023-05-22T20:14:32.960Z,100890.50
2023-05-22T20:17:03.751Z,100791.94
2023-05-22T20:19:34.682Z,100912.44
2023-05-22T20:22:08.429Z,100859.38
2023-05-22T20:24:49.081Z,100835.22
2023-05-22T20:27:19.684Z,100875.03
2023-05-22T20:29:54.354Z,100726.41
2023-05-22T20:32:25.295Z,100881.00
2023-05-22T20:35:06.148Z,100851.63
2023-05-22T20:37:38.433Z,100920.69
2023-05-22T20:40:26.658Z,100926.91
2023-05-22T20:42:55.450Z,100879.06
2023-05-22T20:45:36.505Z,100734.47
2023-05-22T20:48:12.314Z,100662.88
2023-05-22T20:50:45.137Z,100800.03
2023-05-22T20:53:14.038Z,100857.69
2023-05-22T20:55:45.454Z,100493.34
2023-05-22T20:58:17.584Z,100571.88
2023-05-22T21:00:49.651Z,100845.00
2023-05-22T21:03:19.585Z,100931.38
2023-05-22T21:05:53.996Z,100939.63
2023-05-22T21:08:46.954Z,100646.03
2023-05-22T21:11:40.875Z,100918.25
2023-05-22T21:14:37.492Z,100920.47
2023-05-22T21:17:06.443Z,100861.84
2023-05-22T21:19:47.989Z,100919.50
2023-05-22T21:22:27.254Z,100761.22
2023-05-22T21:24:57.999Z,100833.31
2023-05-22T21:27:28.272Z,100654.47
2023-05-22T21:29:58.013Z,100908.13
2023-05-22T21:32:32.261Z,100688.03
2023-05-22T21:35:10.537Z,100596.75
2023-05-22T21:37:44.277Z,100891.66
2023-05-22T21:40:14.772Z,100596.91
2023-05-22T21:42:49.410Z,100896.88
2023-05-22T21:45:25.072Z,100877.59
2023-05-22T21:47:53.917Z,100750.72
2023-05-22T21:50:22.657Z,100890.69
2023-05-22T21:52:51.360Z,100873.56
2023-05-22T21:55:21.017Z,100721.34
2023-05-22T21:58:08.333Z,100766.38
2023-05-22T22:00:37.439Z,100927.44
2023-05-22T22:03:13.415Z,100771.09
2023-05-22T22:05:44.243Z,100925.75
2023-05-22T22:08:32.951Z,100929.31
2023-05-22T22:11:03.822Z,100719.34
2023-05-22T22:13:40.973Z,100933.38
2023-05-22T22:16:10.842Z,100942.63
2023-05-22T22:18:44.308Z,100852.63
2023-05-22T22:21:13.169Z,100708.56
2023-05-22T22:23:41.963Z,100879.19
2023-05-22T22:26:12.344Z,100728.72
2023-05-22T22:28:46.570Z,100887.75
2023-05-22T22:31:17.612Z,100734.94
2023-05-22T22:33:47.830Z,100843.53
2023-05-22T22:36:17.470Z,100922.28
2023-05-22T22:38:47.268Z,100928.84
2023-05-22T22:41:22.096Z,100968.34
2023-05-22T22:43:55.658Z,100913.69
2023-05-22T22:46:24.373Z,100880.34
2023-05-22T22:48:55.619Z,100973.25
2023-05-22T22:51:31.018Z,100928.50
2023-05-22T22:54:00.734Z,100956.25
2023-05-22T22:56:30.634Z,100961.47
2023-05-22T22:59:00.878Z,100937.22
2023-05-22T23:01:38.393Z,100943.47
2023-05-22T23:04:08.381Z,100949.00
2023-05-22T23:06:50.392Z,100918.59
2023-05-22T23:09:19.178Z,100921.44
2023-05-22T23:11:52.666Z,100938.06
2023-05-22T23:14:25.019Z,100923.44
2023-05-22T23:16:53.931Z,100712.31
2023-05-22T23:19:22.628Z,100833.63
2023-05-22T23:21:53.931Z,100701.16
2023-05-22T23:24:23.824Z,100892.34
2023-05-22T23:26:54.274Z,100876.00
2023-05-22T23:29:32.656Z,100891.16
2023-05-22T23:32:03.507Z,100853.13
2023-05-22T23:34:46.601Z,100884.25
2023-05-22T23:37:17.495Z,100912.84
2023-05-22T23:39:49.280Z,100923.44
2023-05-22T23:42:19.253Z,100726.22
2023-05-22T23:44:49.386Z,100701.38
2023-05-22T23:47:22.982Z,100852.63
2023-05-22T23:50:08.213Z,100917.88
2023-05-22T23:52:38.136Z,100815.47
2023-05-22T23:55:08.048Z,100607.97
2023-05-22T23:57:37.847Z,100875.50
